createdAt,value
2018-11-05T00:00:13.798Z,99.50
2018-11-05T00:01:17.213Z,99.50
2018-11-05T00:02:20.647Z,99.50
2018-11-05T00:03:24.094Z,99.50
2018-11-05T00:04:27.493Z,99.50
2018-11-05T00:05:31.066Z,99.50
2018-11-05T00:06:34.487Z,99.50
2018-11-05T00:07:37.890Z,99.50
2018-11-05T00:08:41.353Z,99.50
2018-11-05T00:09:44.769Z,99.50
2018-11-05T00:10:48.157Z,99.50
2018-11-05T00:11:51.593Z,99.50
2018-11-05T00:12:55.015Z,99.40
2018-11-05T00:13:58.455Z,99.40
2018-11-05T00:15:01.919Z,99.50
2018-11-05T00:16:05.321Z,99.80
2018-11-05T00:17:08.708Z,99.50
2018-11-05T00:18:12.100Z,99.60
2018-11-05T00:19:15.516Z,99.60
2018-11-05T00:20:18.941Z,99.60
2018-11-05T00:21:22.330Z,99.60
2018-11-05T00:22:25.736Z,99.60
2018-11-05T00:23:29.138Z,99.60
2018-11-05T00:24:32.560Z,99.60
2018-11-05T00:25:36.103Z,99.60
2018-11-05T00:26:39.604Z,99.70
2018-11-05T00:27:43.304Z,99.60
2018-11-05T00:28:46.717Z,99.60
2018-11-05T00:29:50.128Z,99.50
2018-11-05T00:30:53.539Z,99.60
2018-11-05T00:31:56.940Z,99.60
2018-11-05T00:33:00.358Z,99.60
2018-11-05T00:34:03.848Z,99.60
2018-11-05T00:35:07.249Z,99.60
2018-11-05T00:36:10.632Z,99.60
2018-11-05T00:37:14.625Z,99.60
2018-11-05T00:38:18.032Z,99.60
2018-11-05T00:39:21.457Z,99.40
2018-11-05T00:40:24.873Z,99.60
2018-11-05T00:41:28.264Z,99.60
2018-11-05T00:42:31.673Z,99.60
2018-11-05T00:43:35.069Z,99.60
2018-11-05T00:44:38.468Z,99.60
2018-11-05T00:45:41.934Z,99.60
2018-11-05T00:46:45.272Z,99.60
2018-11-05T00:47:48.687Z,99.90
2018-11-05T00:48:52.110Z,99.70
2018-11-05T00:49:55.501Z,99.70
2018-11-05T00:50:58.902Z,99.70
2018-11-05T00:52:02.292Z,99.70
2018-11-05T00:53:05.716Z,99.70
2018-11-05T00:54:09.347Z,99.70
2018-11-05T00:55:13.185Z,99.70
2018-11-05T00:56:16.692Z,99.70
2018-11-05T00:57:20.120Z,99.70
2018-11-05T00:58:23.507Z,99.70
2018-11-05T00:59:26.930Z,99.60
2018-11-05T01:00:30.389Z,99.60
2018-11-05T01:01:33.801Z,99.60
2018-11-05T01:02:37.495Z,99.60
2018-11-05T01:03:40.882Z,99.60
2018-11-05T01:04:44.306Z,99.60
2018-11-05T01:05:47.718Z,99.60
2018-11-05T01:06:51.147Z,99.60
2018-11-05T01:07:54.571Z,99.60
2018-11-05T01:08:57.951Z,99.60
2018-11-05T01:10:01.365Z,99.60
2018-11-05T01:11:04.832Z,99.60
2018-11-05T01:12:08.245Z,99.60
2018-11-05T01:13:11.661Z,99.70
2018-11-05T01:14:15.019Z,99.60
2018-11-05T01:15:18.424Z,99.60
2018-11-05T01:16:21.867Z,99.70
2018-11-05T01:17:25.432Z,99.70
2018-11-05T01:18:28.793Z,99.70
2018-11-05T01:19:32.160Z,99.70
2018-11-05T01:20:35.518Z,99.70
2018-11-05T01:21:38.920Z,99.80
2018-11-05T01:22:42.328Z,99.70
2018-11-05T01:23:45.720Z,99.80
2018-11-05T01:24:49.121Z,99.80
2018-11-05T01:25:52.501Z,99.80
2018-11-05T01:26:55.925Z,99.90
2018-11-05T01:27:59.349Z,99.90
2018-11-05T01:29:02.769Z,99.90
2018-11-05T01:30:08.149Z,99.90
2018-11-05T01:31:11.568Z,99.90
2018-11-05T01:32:14.948Z,99.90
2018-11-05T01:33:18.358Z,99.90
2018-11-05T01:34:21.774Z,99.90
2018-11-05T01:35:25.144Z,99.90
2018-11-05T01:36:28.541Z,99.90
2018-11-05T01:37:31.922Z,99.70
2018-11-05T01:38:35.391Z,99.90
2018-11-05T01:39:38.832Z,99.90
2018-11-05T01:40:42.219Z,99.90
2018-11-05T01:41:45.589Z,99.90
2018-11-05T01:42:48.991Z,99.90
2018-11-05T01:43:52.428Z,99.80
2018-11-05T01:44:55.841Z,99.90
2018-11-05T01:45:59.220Z,99.90
2018-11-05T01:47:02.608Z,99.90
2018-11-05T01:48:06.277Z,99.80
2018-11-05T01:49:09.720Z,99.80
2018-11-05T01:50:14.807Z,99.80
2018-11-05T01:51:18.207Z,99.80
2018-11-05T01:52:21.609Z,99.60
2018-11-05T01:53:25.010Z,99.80
2018-11-05T01:54:28.639Z,99.80
2018-11-05T01:55:32.085Z,99.70
2018-11-05T01:56:35.480Z,99.70
2018-11-05T01:57:39.618Z,99.70
2018-11-05T01:58:43.014Z,99.70
2018-11-05T01:59:46.408Z,99.70
2018-11-05T02:00:49.780Z,99.70
2018-11-05T02:01:53.188Z,99.70
2018-11-05T02:02:56.578Z,99.70
2018-11-05T02:03:59.974Z,99.70
2018-11-05T02:05:03.424Z,99.70
2018-11-05T02:06:06.828Z,99.70
2018-11-05T02:07:10.205Z,99.70
2018-11-05T02:08:13.627Z,99.70
2018-11-05T02:09:17.072Z,99.70
2018-11-05T02:10:20.569Z,99.70
2018-11-05T02:11:23.935Z,99.70
2018-11-05T02:12:27.336Z,99.70
2018-11-05T02:13:31.090Z,99.70
2018-11-05T02:14:34.420Z,99.70
2018-11-05T02:15:37.820Z,99.70
2018-11-05T02:16:41.683Z,99.80
2018-11-05T02:17:46.096Z,99.70
2018-11-05T02:18:49.505Z,99.70
2018-11-05T02:19:52.887Z,99.70
2018-11-05T02:20:56.310Z,99.70
2018-11-05T02:21:59.751Z,99.70
2018-11-05T02:23:03.148Z,99.70
2018-11-05T02:24:06.536Z,99.70
2018-11-05T02:25:11.223Z,99.70
2018-11-05T02:26:14.628Z,99.70
2018-11-05T02:27:18.098Z,99.70
2018-11-05T02:28:21.464Z,99.70
2018-11-05T02:29:24.861Z,99.70
2018-11-05T02:30:28.290Z,99.70
2018-11-05T02:31:31.721Z,99.70
2018-11-05T02:32:35.129Z,99.70
2018-11-05T02:33:38.511Z,99.70
2018-11-05T02:34:41.921Z,99.70
2018-11-05T02:35:45.341Z,99.70
2018-11-05T02:36:48.757Z,99.80
2018-11-05T02:37:52.189Z,99.80
2018-11-05T02:38:55.609Z,99.80
2018-11-05T02:39:58.992Z,99.80
2018-11-05T02:41:02.428Z,99.80
2018-11-05T02:42:06.048Z,99.80
2018-11-05T02:43:09.439Z,99.80
2018-11-05T02:44:12.836Z,99.80
2018-11-05T02:45:17.280Z,99.80
2018-11-05T02:46:20.705Z,99.80
2018-11-05T02:47:24.159Z,99.80
2018-11-05T02:48:27.584Z,99.80
2018-11-05T02:49:30.989Z,99.80
2018-11-05T02:50:34.380Z,99.80
2018-11-05T02:51:37.764Z,99.80
2018-11-05T02:52:42.145Z,99.80
2018-11-05T02:53:45.648Z,99.80
2018-11-05T02:54:49.052Z,99.80
2018-11-05T02:55:52.455Z,99.80
2018-11-05T02:56:55.844Z,99.80
2018-11-05T02:57:59.267Z,99.80
2018-11-05T02:59:02.637Z,99.80
2018-11-05T03:00:08.657Z,99.80
2018-11-05T03:01:12.054Z,99.80
2018-11-05T03:02:15.448Z,99.80
2018-11-05T03:03:18.956Z,99.80
2018-11-05T03:04:22.293Z,99.80
2018-11-05T03:05:25.712Z,99.80
2018-11-05T03:06:29.077Z,99.80
2018-11-05T03:07:32.477Z,99.70
2018-11-05T03:08:35.904Z,99.70
2018-11-05T03:09:39.284Z,99.80
2018-11-05T03:10:42.667Z,99.80
2018-11-05T03:11:46.060Z,99.80
2018-11-05T03:12:49.488Z,99.80
2018-11-05T03:13:53.057Z,99.80
2018-11-05T03:14:56.476Z,99.80
2018-11-05T03:15:59.840Z,99.70
2018-11-05T03:17:03.231Z,99.70
2018-11-05T03:18:06.616Z,99.70
2018-11-05T03:19:10.040Z,99.70
2018-11-05T03:20:14.331Z,99.90
2018-11-05T03:21:17.692Z,99.70
2018-11-05T03:22:21.095Z,99.70
2018-11-05T03:23:24.464Z,99.70
2018-11-05T03:24:27.879Z,99.70
2018-11-05T03:25:31.287Z,99.70
2018-11-05T03:26:34.663Z,99.70
2018-11-05T03:27:38.540Z,99.70
2018-11-05T03:28:41.960Z,99.70
2018-11-05T03:29:45.375Z,99.70
2018-11-05T03:30:48.777Z,99.70
2018-11-05T03:31:52.160Z,99.70
2018-11-05T03:32:55.582Z,99.70
2018-11-05T03:33:59.001Z,99.60
2018-11-05T03:35:02.474Z,99.60
2018-11-05T03:36:06.581Z,99.70
2018-11-05T03:37:09.948Z,99.70
2018-11-05T03:38:13.320Z,99.70
2018-11-05T03:39:16.707Z,99.70
2018-11-05T03:40:20.187Z,99.80
2018-11-05T03:41:23.613Z,99.80
2018-11-05T03:42:27.037Z,99.80
2018-11-05T03:43:30.483Z,99.80
2018-11-05T03:44:33.900Z,99.80
2018-11-05T03:45:37.325Z,99.80
2018-11-05T03:46:40.807Z,99.80
2018-11-05T03:47:44.538Z,99.80
2018-11-05T03:48:48.104Z,99.80
2018-11-05T03:49:51.557Z,99.80
2018-11-05T03:50:56.128Z,99.80
2018-11-05T03:51:59.580Z,99.80
2018-11-05T03:53:03.076Z,99.80
2018-11-05T03:54:07.277Z,99.80
2018-11-05T03:55:10.657Z,99.80
2018-11-05T03:56:14.139Z,99.80
2018-11-05T03:57:17.529Z,99.80
2018-11-05T03:58:20.944Z,99.80
2018-11-05T03:59:24.379Z,99.80
2018-11-05T04:00:27.792Z,99.80
2018-11-05T04:01:31.208Z,99.80
2018-11-05T04:02:34.628Z,99.80
2018-11-05T04:03:38.062Z,99.80
2018-11-05T04:04:41.464Z,99.80
2018-11-05T04:05:44.884Z,99.80
2018-11-05T04:06:48.316Z,99.80
2018-11-05T04:07:51.699Z,99.80
2018-11-05T04:08:55.097Z,99.80
2018-11-05T04:09:58.508Z,99.80
2018-11-05T04:11:01.912Z,99.80
2018-11-05T04:12:05.869Z,99.80
2018-11-05T04:13:09.248Z,99.80
2018-11-05T04:14:12.641Z,99.80
2018-11-05T04:15:16.100Z,99.80
2018-11-05T04:16:19.419Z,99.80
2018-11-05T04:17:22.813Z,99.90
2018-11-05T04:18:26.192Z,99.90
2018-11-05T04:19:29.558Z,99.90
2018-11-05T04:20:32.964Z,99.90
2018-11-05T04:21:43.632Z,99.90
2018-11-05T04:22:47.070Z,99.90
2018-11-05T04:23:50.488Z,99.90
2018-11-05T04:24:53.888Z,99.90
2018-11-05T04:25:57.259Z,99.90
2018-11-05T04:27:00.648Z,99.90
2018-11-05T04:28:04.092Z,99.90
2018-11-05T04:29:07.927Z,99.80
2018-11-05T04:30:13.473Z,99.90
2018-11-05T04:31:16.865Z,99.90
2018-11-05T04:32:20.363Z,99.90
2018-11-05T04:33:23.789Z,99.90
2018-11-05T04:34:27.155Z,99.90
2018-11-05T04:35:30.523Z,99.80
2018-11-05T04:36:33.929Z,99.80
2018-11-05T04:37:37.479Z,99.80
2018-11-05T04:38:40.985Z,99.80
2018-11-05T04:39:44.393Z,99.80
2018-11-05T04:40:47.784Z,99.80
2018-11-05T04:41:51.142Z,99.80
2018-11-05T04:42:54.600Z,99.80
2018-11-05T04:43:58.030Z,99.80
2018-11-05T04:45:01.406Z,99.80
2018-11-05T04:46:04.814Z,99.80
2018-11-05T04:47:08.276Z,99.80
2018-11-05T04:48:11.672Z,99.80
2018-11-05T04:49:15.104Z,99.80
2018-11-05T04:50:18.526Z,99.80
2018-11-05T04:51:21.929Z,99.70
2018-11-05T04:52:25.347Z,99.70
2018-11-05T04:53:28.744Z,99.70
2018-11-05T04:54:32.176Z,99.70
2018-11-05T04:55:35.605Z,99.70
2018-11-05T04:56:39.005Z,99.70
2018-11-05T04:57:42.376Z,99.70
2018-11-05T04:58:45.821Z,99.70
2018-11-05T04:59:49.243Z,99.70
2018-11-05T05:00:52.700Z,99.60
2018-11-05T05:01:56.089Z,99.70
2018-11-05T05:02:59.513Z,99.70
2018-11-05T05:04:02.948Z,99.70
2018-11-05T05:05:06.436Z,99.60
2018-11-05T05:06:09.829Z,99.60
2018-11-05T05:07:13.263Z,99.60
2018-11-05T05:08:16.641Z,99.60
2018-11-05T05:09:20.057Z,99.60
2018-11-05T05:10:23.534Z,99.60
2018-11-05T05:11:27.018Z,99.60
2018-11-05T05:12:30.441Z,99.60
2018-11-05T05:13:33.811Z,99.60
2018-11-05T05:14:37.260Z,99.60
2018-11-05T05:15:40.667Z,99.60
2018-11-05T05:16:44.052Z,99.70
2018-11-05T05:17:47.959Z,99.60
2018-11-05T05:18:51.666Z,99.70
2018-11-05T05:19:55.191Z,99.70
2018-11-05T05:20:58.803Z,99.70
2018-11-05T05:22:02.395Z,99.70
2018-11-05T05:23:06.451Z,99.70
2018-11-05T05:24:09.999Z,99.70
2018-11-05T05:25:13.834Z,99.70
2018-11-05T05:26:17.329Z,99.70
2018-11-05T05:27:20.796Z,99.70
2018-11-05T05:28:24.339Z,99.70
2018-11-05T05:29:27.819Z,99.70
2018-11-05T05:30:31.184Z,99.70
2018-11-05T05:31:35.618Z,99.90
2018-11-05T05:32:38.999Z,99.80
2018-11-05T05:33:42.898Z,99.80
2018-11-05T05:34:46.533Z,99.80
2018-11-05T05:35:49.917Z,99.80
2018-11-05T05:36:53.323Z,99.80
2018-11-05T05:37:56.712Z,99.80
2018-11-05T05:39:00.089Z,99.80
2018-11-05T05:40:03.613Z,99.80
2018-11-05T05:41:07.248Z,99.80
2018-11-05T05:42:10.672Z,99.80
2018-11-05T05:43:14.062Z,99.80
2018-11-05T05:44:17.448Z,99.80
2018-11-05T05:45:20.864Z,99.80
2018-11-05T05:46:24.232Z,99.80
2018-11-05T05:47:27.743Z,99.80
2018-11-05T05:48:31.164Z,99.80
2018-11-05T05:49:35.005Z,99.80
2018-11-05T05:50:38.368Z,99.80
2018-11-05T05:51:41.957Z,99.80
2018-11-05T05:52:47.625Z,99.80
2018-11-05T05:53:51.049Z,99.80
2018-11-05T05:54:54.572Z,99.90
2018-11-05T05:55:57.976Z,99.80
2018-11-05T05:57:01.437Z,99.90
2018-11-05T05:58:05.120Z,99.90
2018-11-05T05:59:08.511Z,99.90
2018-11-05T06:00:13.689Z,99.90
2018-11-05T06:01:17.069Z,99.90
2018-11-05T06:02:20.464Z,99.90
2018-11-05T06:03:23.982Z,99.90
2018-11-05T06:04:27.717Z,99.90
2018-11-05T06:05:31.111Z,99.90
2018-11-05T06:06:34.619Z,99.90
2018-11-05T06:07:38.396Z,99.90
2018-11-05T06:08:41.788Z,99.90
2018-11-05T06:09:45.193Z,99.90
2018-11-05T06:10:48.583Z,99.90
2018-11-05T06:11:51.968Z,99.90
2018-11-05T06:12:55.372Z,99.90
2018-11-05T06:13:58.803Z,99.90
2018-11-05T06:15:02.173Z,99.90
2018-11-05T06:16:05.570Z,99.90
2018-11-05T06:17:08.947Z,99.90
2018-11-05T06:18:12.364Z,99.90
2018-11-05T06:19:15.780Z,99.90
2018-11-05T06:20:20.052Z,99.90
2018-11-05T06:21:23.452Z,99.90
2018-11-05T06:22:26.825Z,99.90
2018-11-05T06:23:30.215Z,99.90
2018-11-05T06:24:33.605Z,99.90
2018-11-05T06:25:36.980Z,99.70
2018-11-05T06:26:40.354Z,99.90
2018-11-05T06:27:43.746Z,99.90
2018-11-05T06:28:47.149Z,99.90
2018-11-05T06:29:50.723Z,99.90
2018-11-05T06:30:54.105Z,99.90
2018-11-05T06:31:57.477Z,99.90
2018-11-05T06:33:00.894Z,99.90
2018-11-05T06:34:04.493Z,99.90
2018-11-05T06:35:08.724Z,99.90
2018-11-05T06:36:12.168Z,99.90
2018-11-05T06:37:16.172Z,99.90
2018-11-05T06:38:20.140Z,99.90
2018-11-05T06:39:23.520Z,99.90
2018-11-05T06:40:26.991Z,99.90
2018-11-05T06:41:30.534Z,99.90
2018-11-05T06:42:33.909Z,99.90
2018-11-05T06:43:37.281Z,99.90
2018-11-05T06:44:40.709Z,99.90
2018-11-05T06:45:44.143Z,99.90
2018-11-05T06:46:47.527Z,99.90
2018-11-05T06:47:51.340Z,99.90
2018-11-05T06:48:54.811Z,99.90
2018-11-05T06:49:58.156Z,99.90
2018-11-05T06:51:01.548Z,99.90
2018-11-05T06:52:05.092Z,99.90
2018-11-05T06:53:08.540Z,99.90
2018-11-05T06:54:11.981Z,99.90
2018-11-05T06:55:15.952Z,99.90
2018-11-05T06:56:19.494Z,99.90
2018-11-05T06:57:22.881Z,99.90
2018-11-05T06:58:26.292Z,99.90
2018-11-05T06:59:29.682Z,99.90
2018-11-05T07:00:33.045Z,99.90
2018-11-05T07:01:36.449Z,99.90
2018-11-05T07:02:40.105Z,99.90
2018-11-05T07:03:43.501Z,99.90
2018-11-05T07:04:46.884Z,99.80
2018-11-05T07:05:50.371Z,99.80
2018-11-05T07:06:53.800Z,99.90
2018-11-05T07:07:57.179Z,99.90
2018-11-05T07:09:00.576Z,99.90
2018-11-05T07:10:04.217Z,99.80
2018-11-05T07:11:07.664Z,99.80
2018-11-05T07:12:11.132Z,99.80
2018-11-05T07:13:14.619Z,99.80
2018-11-05T07:14:18.018Z,99.80
2018-11-05T07:15:21.381Z,99.80
2018-11-05T07:16:25.344Z,99.80
2018-11-05T07:17:28.767Z,99.70
2018-11-05T07:18:32.241Z,99.80
2018-11-05T07:19:35.688Z,99.70
2018-11-05T07:20:38.996Z,99.70
2018-11-05T07:21:42.421Z,99.80
2018-11-05T07:22:46.881Z,99.80
2018-11-05T07:23:50.327Z,99.70
2018-11-05T07:24:53.716Z,99.70
2018-11-05T07:25:57.240Z,99.70
2018-11-05T07:27:00.738Z,99.70
2018-11-05T07:28:04.156Z,99.60
2018-11-05T07:29:07.593Z,99.90
2018-11-05T07:30:13.428Z,99.70
2018-11-05T07:31:16.878Z,99.60
2018-11-05T07:32:20.287Z,99.60
2018-11-05T07:33:23.819Z,99.60
2018-11-05T07:34:27.231Z,99.50
2018-11-05T07:35:30.593Z,99.50
2018-11-05T07:36:33.980Z,99.50
2018-11-05T07:37:37.356Z,99.40
2018-11-05T07:38:40.743Z,99.40
2018-11-05T07:39:44.139Z,99.40
2018-11-05T07:40:47.516Z,99.40
2018-11-05T07:41:50.920Z,99.40
2018-11-05T07:42:54.295Z,99.40
2018-11-05T07:43:57.677Z,99.30
2018-11-05T07:45:01.070Z,99.20
2018-11-05T07:46:04.457Z,99.30
2018-11-05T07:47:07.908Z,99.30
2018-11-05T07:48:11.292Z,99.30
2018-11-05T07:49:14.955Z,99.30
2018-11-05T07:50:19.425Z,99.30
2018-11-05T07:51:22.823Z,99.30
2018-11-05T07:52:26.220Z,99.30
2018-11-05T07:53:29.603Z,99.20
2018-11-05T07:54:33.100Z,99.20
2018-11-05T07:55:36.520Z,99.20
2018-11-05T07:56:39.997Z,99.20
2018-11-05T07:57:44.426Z,99.20
2018-11-05T07:58:47.857Z,99.20
2018-11-05T07:59:51.277Z,99.10
2018-11-05T08:00:55.863Z,99.00
2018-11-05T08:01:59.257Z,99.00
2018-11-05T08:03:02.715Z,99.10
2018-11-05T08:04:06.024Z,99.10
2018-11-05T08:05:09.425Z,99.10
2018-11-05T08:06:12.831Z,99.10
2018-11-05T08:07:16.237Z,99.10
2018-11-05T08:08:19.657Z,99.10
2018-11-05T08:09:22.983Z,99.10
2018-11-05T08:10:26.385Z,99.10
2018-11-05T08:11:29.791Z,99.10
2018-11-05T08:12:33.293Z,99.10
2018-11-05T08:13:36.707Z,99.00
2018-11-05T08:14:40.327Z,99.00
2018-11-05T08:15:43.766Z,99.00
2018-11-05T08:16:47.153Z,99.00
2018-11-05T08:17:51.416Z,99.00
2018-11-05T08:18:54.808Z,99.00
2018-11-05T08:19:58.540Z,99.00
2018-11-05T08:21:01.924Z,98.90
2018-11-05T08:22:05.306Z,98.90
2018-11-05T08:23:08.717Z,99.00
2018-11-05T08:24:12.491Z,99.00
2018-11-05T08:25:16.452Z,98.90
2018-11-05T08:26:19.860Z,98.90
2018-11-05T08:27:23.248Z,98.90
2018-11-05T08:28:26.686Z,99.10
2018-11-05T08:29:30.051Z,98.90
2018-11-05T08:30:33.459Z,98.90
2018-11-05T08:31:36.883Z,98.90
2018-11-05T08:32:40.269Z,98.90
2018-11-05T08:33:43.664Z,98.80
2018-11-05T08:34:47.080Z,98.80
2018-11-05T08:35:50.477Z,98.80
2018-11-05T08:36:53.900Z,98.80
2018-11-05T08:37:57.275Z,98.80
2018-11-05T08:39:01.555Z,98.80
2018-11-05T08:40:07.488Z,98.80
2018-11-05T08:41:10.858Z,98.80
2018-11-05T08:42:14.266Z,98.80
2018-11-05T08:43:17.670Z,98.80
2018-11-05T08:44:21.072Z,98.70
2018-11-05T08:45:25.792Z,98.70
2018-11-05T08:46:29.189Z,98.70
2018-11-05T08:47:32.644Z,98.70
2018-11-05T08:48:36.105Z,98.60
2018-11-05T08:49:39.544Z,98.60
2018-11-05T08:50:42.969Z,98.60
2018-11-05T08:51:46.602Z,98.60
2018-11-05T08:52:49.765Z,98.60
2018-11-05T08:53:53.214Z,98.60
2018-11-05T08:54:56.570Z,98.50
2018-11-05T08:56:00.057Z,98.50
2018-11-05T08:57:03.444Z,98.50
2018-11-05T08:58:06.898Z,98.40
2018-11-05T08:59:10.296Z,98.40
2018-11-05T09:00:52.368Z,98.30
2018-11-05T09:01:55.839Z,98.30
2018-11-05T09:02:59.245Z,98.20
2018-11-05T09:04:03.102Z,98.30
2018-11-05T09:05:06.559Z,98.20
2018-11-05T09:06:09.949Z,98.20
2018-11-05T09:07:13.421Z,98.20
2018-11-05T09:08:16.816Z,98.20
2018-11-05T09:09:20.220Z,98.20
2018-11-05T09:10:23.763Z,98.30
2018-11-05T09:11:27.697Z,98.20
2018-11-05T09:12:30.702Z,98.20
2018-11-05T09:13:34.117Z,98.20
2018-11-05T09:14:37.537Z,98.20
2018-11-05T09:15:40.963Z,98.10
2018-11-05T09:16:44.384Z,98.10
2018-11-05T09:17:48.155Z,98.10
2018-11-05T09:18:51.708Z,98.10
2018-11-05T09:19:55.167Z,98.10
2018-11-05T09:20:58.595Z,98.10
2018-11-05T09:22:01.956Z,98.10
2018-11-05T09:23:05.623Z,98.10
2018-11-05T09:24:08.983Z,98.00
2018-11-05T09:25:13.186Z,98.00
2018-11-05T09:26:16.652Z,97.90
2018-11-05T09:27:20.060Z,98.00
2018-11-05T09:28:23.456Z,97.90
2018-11-05T09:29:26.837Z,97.80
2018-11-05T09:30:30.241Z,97.80
2018-11-05T09:31:33.749Z,97.80
2018-11-05T09:32:37.157Z,97.80
2018-11-05T09:33:41.301Z,97.60
2018-11-05T09:34:45.392Z,97.70
2018-11-05T09:35:48.795Z,97.60
2018-11-05T09:36:52.523Z,97.60
2018-11-05T09:37:56.211Z,97.50
2018-11-05T09:39:00.627Z,97.50
2018-11-05T09:40:04.966Z,97.50
2018-11-05T09:41:09.083Z,97.50
2018-11-05T09:42:12.680Z,97.50
2018-11-05T09:43:16.634Z,97.50
2018-11-05T09:44:21.037Z,97.50
2018-11-05T09:45:27.140Z,97.40
2018-11-05T09:46:30.561Z,97.30
2018-11-05T09:47:33.940Z,97.30
2018-11-05T09:48:38.641Z,97.30
2018-11-05T09:49:42.461Z,97.20
2018-11-05T09:50:46.183Z,97.00
2018-11-05T09:51:50.387Z,97.20
2018-11-05T09:52:53.781Z,97.30
2018-11-05T09:53:57.604Z,97.20
2018-11-05T09:55:00.982Z,97.20
2018-11-05T09:56:04.525Z,97.20
2018-11-05T09:57:08.088Z,97.20
2018-11-05T09:58:11.506Z,97.20
2018-11-05T09:59:15.216Z,97.20
2018-11-05T10:00:21.182Z,97.20
2018-11-05T10:01:24.702Z,97.20
2018-11-05T10:02:33.568Z,97.10
2018-11-05T10:03:42.834Z,97.20
2018-11-05T10:04:46.465Z,97.00
2018-11-05T10:05:49.589Z,97.00
2018-11-05T10:06:52.980Z,97.00
2018-11-05T10:07:56.441Z,96.90
2018-11-05T10:08:59.820Z,96.80
2018-11-05T10:10:04.849Z,96.80
2018-11-05T10:11:08.242Z,96.80
2018-11-05T10:12:12.066Z,96.80
2018-11-05T10:13:15.878Z,96.80
2018-11-05T10:14:19.791Z,96.80
2018-11-05T10:15:23.904Z,96.90
2018-11-05T10:16:27.488Z,96.90
2018-11-05T10:17:31.592Z,96.90
2018-11-05T10:18:35.081Z,96.90
2018-11-05T10:19:38.611Z,96.90
2018-11-05T10:20:41.993Z,96.90
2018-11-05T10:21:45.800Z,97.00
2018-11-05T10:22:49.602Z,96.90
2018-11-05T10:23:53.042Z,96.90
2018-11-05T10:24:56.616Z,96.80
2018-11-05T10:26:00.205Z,96.80
2018-11-05T10:27:03.800Z,96.80
2018-11-05T10:28:08.457Z,96.80
2018-11-05T10:29:11.864Z,96.80
2018-11-05T10:30:19.296Z,96.70
2018-11-05T10:31:25.755Z,97.00
2018-11-05T10:32:29.137Z,96.70
2018-11-05T10:33:33.015Z,96.60
2018-11-05T10:34:36.851Z,96.60
2018-11-05T10:35:45.827Z,96.80
2018-11-05T10:36:49.275Z,96.50
2018-11-05T10:37:53.096Z,96.30
2018-11-05T10:38:56.716Z,96.20
2018-11-05T10:40:00.357Z,96.10
2018-11-05T10:41:04.001Z,96.10
2018-11-05T10:42:07.555Z,95.90
2018-11-05T10:43:11.183Z,95.90
2018-11-05T10:44:14.888Z,96.00
2018-11-05T10:45:19.249Z,96.00
2018-11-05T10:46:22.718Z,96.00
2018-11-05T10:47:26.813Z,96.10
2018-11-05T10:48:30.644Z,96.10
2018-11-05T10:49:34.037Z,96.00
2018-11-05T10:50:37.515Z,95.90
2018-11-05T10:51:41.886Z,95.90
2018-11-05T10:52:46.928Z,95.80
2018-11-05T10:53:50.704Z,95.80
2018-11-05T10:54:54.588Z,95.80
2018-11-05T10:55:59.209Z,95.80
2018-11-05T10:57:02.973Z,95.70
2018-11-05T10:58:06.372Z,95.80
2018-11-05T10:59:09.766Z,95.80
2018-11-05T11:00:20.693Z,95.80
2018-11-05T11:01:29.425Z,95.80
2018-11-05T11:02:38.528Z,95.90
2018-11-05T11:03:46.199Z,95.80
2018-11-05T11:04:49.507Z,95.80
2018-11-05T11:05:52.925Z,95.80
2018-11-05T11:06:56.305Z,95.80
2018-11-05T11:08:00.525Z,95.80
2018-11-05T11:09:04.326Z,95.70
2018-11-05T11:10:07.723Z,95.70
2018-11-05T11:11:11.110Z,95.70
2018-11-05T11:12:14.468Z,95.70
2018-11-05T11:13:17.932Z,95.70
2018-11-05T11:14:21.492Z,95.70
2018-11-05T11:15:25.031Z,95.70
2018-11-05T11:16:28.299Z,95.60
2018-11-05T11:17:31.679Z,95.60
2018-11-05T11:18:35.056Z,95.60
2018-11-05T11:19:38.461Z,95.60
2018-11-05T11:20:41.969Z,95.50
2018-11-05T11:21:45.387Z,95.50
2018-11-05T11:22:48.762Z,95.50
2018-11-05T11:23:52.137Z,95.50
2018-11-05T11:24:55.508Z,95.50
2018-11-05T11:25:58.893Z,95.40
2018-11-05T11:27:02.331Z,95.30
2018-11-05T11:28:05.963Z,95.30
2018-11-05T11:29:09.228Z,95.30
2018-11-05T11:30:13.880Z,95.30
2018-11-05T11:31:17.256Z,95.40
2018-11-05T11:32:20.674Z,95.30
2018-11-05T11:33:24.092Z,95.20
2018-11-05T11:34:27.524Z,95.20
2018-11-05T11:35:30.919Z,95.20
2018-11-05T11:36:34.457Z,95.50
2018-11-05T11:37:38.025Z,95.30
2018-11-05T11:38:41.404Z,95.60
2018-11-05T11:39:44.786Z,95.40
2018-11-05T11:40:48.189Z,95.50
2018-11-05T11:41:51.556Z,95.50
2018-11-05T11:42:54.976Z,95.20
2018-11-05T11:43:58.380Z,95.50
2018-11-05T11:45:01.816Z,95.50
2018-11-05T11:46:05.938Z,95.50
2018-11-05T11:47:09.352Z,95.50
2018-11-05T11:48:12.736Z,95.50
2018-11-05T11:49:16.121Z,95.50
2018-11-05T11:50:19.839Z,95.50
2018-11-05T11:51:23.225Z,95.50
2018-11-05T11:52:26.622Z,95.50
2018-11-05T11:53:30.189Z,95.50
2018-11-05T11:54:33.564Z,95.50
2018-11-05T11:55:36.987Z,95.80
2018-11-05T11:56:40.393Z,95.50
2018-11-05T11:57:44.077Z,95.50
2018-11-05T11:58:47.516Z,95.50
2018-11-05T11:59:50.889Z,95.50
2018-11-05T12:00:54.283Z,95.40
2018-11-05T12:02:03.267Z,95.30
2018-11-05T12:03:06.553Z,95.30
2018-11-05T12:04:10.004Z,95.30
2018-11-05T12:05:13.550Z,95.40
2018-11-05T12:06:16.905Z,95.30
2018-11-05T12:07:20.296Z,95.30
2018-11-05T12:08:23.743Z,95.30
2018-11-05T12:09:27.144Z,95.40
2018-11-05T12:10:30.647Z,95.40
2018-11-05T12:11:34.046Z,95.40
2018-11-05T12:12:37.480Z,95.30
2018-11-05T12:13:41.137Z,95.10
2018-11-05T12:14:44.714Z,95.30
2018-11-05T12:15:47.971Z,95.30
2018-11-05T12:16:51.356Z,95.40
2018-11-05T12:17:54.731Z,95.30
2018-11-05T12:18:58.105Z,95.30
2018-11-05T12:20:01.542Z,95.30
2018-11-05T12:21:05.240Z,95.40
2018-11-05T12:22:08.619Z,95.70
2018-11-05T12:23:12.005Z,95.40
2018-11-05T12:24:15.569Z,95.30
2018-11-05T12:25:18.987Z,95.30
2018-11-05T12:26:22.370Z,95.40
2018-11-05T12:27:25.748Z,95.20
2018-11-05T12:28:29.123Z,95.50
2018-11-05T12:29:32.487Z,95.50
2018-11-05T12:30:35.911Z,95.50
2018-11-05T12:31:39.356Z,95.50
2018-11-05T12:32:43.368Z,95.50
2018-11-05T12:33:46.764Z,95.40
2018-11-05T12:34:50.153Z,95.40
2018-11-05T12:35:53.553Z,95.40
2018-11-05T12:36:57.005Z,95.40
2018-11-05T12:38:00.484Z,95.40
2018-11-05T12:39:05.417Z,95.40
2018-11-05T12:40:11.095Z,95.30
2018-11-05T12:41:14.492Z,95.30
2018-11-05T12:42:17.903Z,95.10
2018-11-05T12:43:21.368Z,95.20
2018-11-05T12:44:31.410Z,95.20
2018-11-05T12:45:34.827Z,95.20
2018-11-05T12:46:39.088Z,95.30
2018-11-05T12:47:42.551Z,95.30
2018-11-05T12:48:45.928Z,95.30
2018-11-05T12:49:49.345Z,95.40
2018-11-05T12:50:52.726Z,95.40
2018-11-05T12:51:56.532Z,95.40
2018-11-05T12:53:00.037Z,95.50
2018-11-05T12:54:03.596Z,95.50
2018-11-05T12:55:07.872Z,95.50
2018-11-05T12:56:11.289Z,95.50
2018-11-05T12:57:14.726Z,95.60
2018-11-05T12:58:18.135Z,95.50
2018-11-05T12:59:21.505Z,95.40
2018-11-05T13:00:25.856Z,95.30
2018-11-05T13:01:30.266Z,95.40
2018-11-05T13:02:33.668Z,95.40
2018-11-05T13:03:37.060Z,95.30
2018-11-05T13:04:40.589Z,95.30
2018-11-05T13:05:43.956Z,95.50
2018-11-05T13:06:47.341Z,95.20
2018-11-05T13:07:50.752Z,95.20
2018-11-05T13:08:54.265Z,95.20
2018-11-05T13:09:57.648Z,95.20
2018-11-05T13:11:01.036Z,95.10
2018-11-05T13:12:04.508Z,95.00
2018-11-05T13:13:08.053Z,95.00
2018-11-05T13:14:11.350Z,95.00
2018-11-05T13:15:15.812Z,95.00
2018-11-05T13:16:19.161Z,95.00
2018-11-05T13:17:22.531Z,95.00
2018-11-05T13:18:26.084Z,95.00
2018-11-05T13:19:29.473Z,94.90
2018-11-05T13:20:32.850Z,94.90
2018-11-05T13:21:36.223Z,94.90
2018-11-05T13:22:39.983Z,94.90
2018-11-05T13:23:44.964Z,94.80
2018-11-05T13:24:48.367Z,94.80
2018-11-05T13:25:51.864Z,94.70
2018-11-05T13:26:55.288Z,94.70
2018-11-05T13:27:58.736Z,94.80
2018-11-05T13:29:02.145Z,94.70
2018-11-05T13:30:06.927Z,94.70
2018-11-05T13:31:10.320Z,94.60
2018-11-05T13:32:13.705Z,94.70
2018-11-05T13:33:17.093Z,94.70
2018-11-05T13:34:20.608Z,94.80
2018-11-05T13:35:24.005Z,95.10
2018-11-05T13:36:27.409Z,94.80
2018-11-05T13:37:31.316Z,94.80
2018-11-05T13:38:34.859Z,94.70
2018-11-05T13:39:38.187Z,95.00